sensor_id;sensor_type;location;lat;lon;timestamp;P1;durP1;ratioP1;P2;durP2;ratioP2
65033;SDS011;51601;51.356;12.458;2023-07-13T00:02:27;6.28;;;2.10;;
65033;SDS011;51601;51.356;12.458;2023-07-13T00:06:46;7.60;;;2.70;;
65033;SDS011;51601;51.356;12.458;2023-07-13T00:11:03;5.40;;;2.23;;
65033;SDS011;51601;51.356;12.458;2023-07-13T00:15:24;6.35;;;2.42;;
65033;SDS011;51601;51.356;12.458;2023-07-13T00:19:43;12.50;;;2.60;;
65033;SDS011;51601;51.356;12.458;2023-07-13T00:24:01;5.00;;;2.08;;
65033;SDS011;51601;51.356;12.458;2023-07-13T00:28:19;6.77;;;2.20;;
65033;SDS011;51601;51.356;12.458;2023-07-13T00:32:38;7.35;;;2.30;;
65033;SDS011;51601;51.356;12.458;2023-07-13T00:36:58;5.10;;;2.03;;
65033;SDS011;51601;51.356;12.458;2023-07-13T00:41:16;6.53;;;2.50;;
65033;SDS011;51601;51.356;12.458;2023-07-13T00:50:36;6.13;;;2.10;;
65033;SDS011;51601;51.356;12.458;2023-07-13T00:54:56;5.63;;;2.30;;
65033;SDS011;51601;51.356;12.458;2023-07-13T00:59:15;5.88;;;2.40;;
65033;SDS011;51601;51.356;12.458;2023-07-13T01:03:36;6.72;;;2.40;;
65033;SDS011;51601;51.356;12.458;2023-07-13T01:07:55;7.85;;;2.40;;
65033;SDS011;51601;51.356;12.458;2023-07-13T01:12:12;6.07;;;2.30;;
65033;SDS011;51601;51.356;12.458;2023-07-13T01:16:34;6.30;;;2.20;;
65033;SDS011;51601;51.356;12.458;2023-07-13T01:20:56;7.13;;;2.30;;
65033;SDS011;51601;51.356;12.458;2023-07-13T01:25:15;5.00;;;1.90;;
65033;SDS011;51601;51.356;12.458;2023-07-13T01:29:33;6.00;;;2.25;;
65033;SDS011;51601;51.356;12.458;2023-07-13T01:33:57;5.15;;;2.00;;
65033;SDS011;51601;51.356;12.458;2023-07-13T01:38:20;5.97;;;1.87;;
65033;SDS011;51601;51.356;12.458;2023-07-13T01:42:40;5.63;;;2.10;;
65033;SDS011;51601;51.356;12.458;2023-07-13T01:46:57;6.20;;;2.10;;
65033;SDS011;51601;51.356;12.458;2023-07-13T01:51:16;6.88;;;2.30;;
65033;SDS011;51601;51.356;12.458;2023-07-13T01:55:35;6.97;;;2.20;;
65033;SDS011;51601;51.356;12.458;2023-07-13T01:59:55;5.80;;;2.22;;
65033;SDS011;51601;51.356;12.458;2023-07-13T02:04:13;7.97;;;2.17;;
65033;SDS011;51601;51.356;12.458;2023-07-13T02:08:31;5.67;;;2.10;;
65033;SDS011;51601;51.356;12.458;2023-07-13T02:12:50;6.05;;;2.10;;
65033;SDS011;51601;51.356;12.458;2023-07-13T02:17:07;6.25;;;2.10;;
65033;SDS011;51601;51.356;12.458;2023-07-13T02:21:25;6.43;;;2.00;;
65033;SDS011;51601;51.356;12.458;2023-07-13T02:25:43;7.38;;;2.20;;
65033;SDS011;51601;51.356;12.458;2023-07-13T02:30:03;5.75;;;2.42;;
65033;SDS011;51601;51.356;12.458;2023-07-13T02:34:23;8.10;;;2.25;;
65033;SDS011;51601;51.356;12.458;2023-07-13T02:38:40;5.73;;;2.20;;
65033;SDS011;51601;51.356;12.458;2023-07-13T02:42:59;7.93;;;2.40;;
65033;SDS011;51601;51.356;12.458;2023-07-13T02:47:21;7.70;;;2.53;;
65033;SDS011;51601;51.356;12.458;2023-07-13T02:51:38;5.27;;;2.27;;
65033;SDS011;51601;51.356;12.458;2023-07-13T02:55:56;6.18;;;2.13;;
65033;SDS011;51601;51.356;12.458;2023-07-13T03:00:14;10.05;;;2.47;;
65033;SDS011;51601;51.356;12.458;2023-07-13T03:04:34;10.40;;;2.63;;
65033;SDS011;51601;51.356;12.458;2023-07-13T03:08:53;8.25;;;2.63;;
65033;SDS011;51601;51.356;12.458;2023-07-13T03:13:11;7.88;;;2.55;;
65033;SDS011;51601;51.356;12.458;2023-07-13T03:17:29;8.13;;;2.60;;
65033;SDS011;51601;51.356;12.458;2023-07-13T03:21:48;7.60;;;2.50;;
65033;SDS011;51601;51.356;12.458;2023-07-13T03:26:06;6.45;;;2.65;;
65033;SDS011;51601;51.356;12.458;2023-07-13T03:30:29;7.18;;;3.00;;
65033;SDS011;51601;51.356;12.458;2023-07-13T03:34:47;7.77;;;2.83;;
65033;SDS011;51601;51.356;12.458;2023-07-13T03:39:08;7.93;;;3.05;;
65033;SDS011;51601;51.356;12.458;2023-07-13T03:43:33;7.47;;;3.08;;
65033;SDS011;51601;51.356;12.458;2023-07-13T03:47:51;9.20;;;2.80;;
65033;SDS011;51601;51.356;12.458;2023-07-13T03:52:09;6.53;;;2.95;;
65033;SDS011;51601;51.356;12.458;2023-07-13T03:56:29;7.40;;;3.13;;
65033;SDS011;51601;51.356;12.458;2023-07-13T04:00:51;7.63;;;2.90;;
65033;SDS011;51601;51.356;12.458;2023-07-13T04:05:09;7.10;;;2.73;;
65033;SDS011;51601;51.356;12.458;2023-07-13T04:09:27;7.80;;;3.08;;
65033;SDS011;51601;51.356;12.458;2023-07-13T04:13:47;6.57;;;3.08;;
65033;SDS011;51601;51.356;12.458;2023-07-13T04:18:10;9.27;;;3.80;;
65033;SDS011;51601;51.356;12.458;2023-07-13T04:22:27;7.05;;;3.25;;
65033;SDS011;51601;51.356;12.458;2023-07-13T04:26:46;8.80;;;3.00;;
65033;SDS011;51601;51.356;12.458;2023-07-13T04:31:05;7.30;;;2.83;;
65033;SDS011;51601;51.356;12.458;2023-07-13T04:35:25;8.55;;;2.80;;
65033;SDS011;51601;51.356;12.458;2023-07-13T04:39:43;6.57;;;2.88;;
65033;SDS011;51601;51.356;12.458;2023-07-13T04:44:01;7.13;;;2.83;;
65033;SDS011;51601;51.356;12.458;2023-07-13T04:48:20;7.70;;;2.90;;
65033;SDS011;51601;51.356;12.458;2023-07-13T04:52:40;7.82;;;3.00;;
65033;SDS011;51601;51.356;12.458;2023-07-13T04:56:58;6.90;;;2.85;;
65033;SDS011;51601;51.356;12.458;2023-07-13T05:01:16;8.47;;;3.00;;
65033;SDS011;51601;51.356;12.458;2023-07-13T05:05:36;9.85;;;2.83;;
65033;SDS011;51601;51.356;12.458;2023-07-13T05:09:52;8.93;;;3.05;;
65033;SDS011;51601;51.356;12.458;2023-07-13T05:14:10;7.20;;;2.70;;
65033;SDS011;51601;51.356;12.458;2023-07-13T05:18:28;8.43;;;2.75;;
65033;SDS011;51601;51.356;12.458;2023-07-13T05:22:48;6.85;;;2.40;;
65033;SDS011;51601;51.356;12.458;2023-07-13T05:27:08;7.63;;;2.20;;
65033;SDS011;51601;51.356;12.458;2023-07-13T05:31:26;7.33;;;2.37;;
65033;SDS011;51601;51.356;12.458;2023-07-13T05:35:44;6.43;;;2.13;;
65033;SDS011;51601;51.356;12.458;2023-07-13T05:40:03;6.45;;;2.22;;
65033;SDS011;51601;51.356;12.458;2023-07-13T05:44:23;7.43;;;2.20;;
65033;SDS011;51601;51.356;12.458;2023-07-13T05:48:41;5.97;;;1.83;;
65033;SDS011;51601;51.356;12.458;2023-07-13T05:52:59;5.43;;;1.80;;
65033;SDS011;51601;51.356;12.458;2023-07-13T05:57:18;6.63;;;1.73;;
65033;SDS011;51601;51.356;12.458;2023-07-13T06:01:38;6.47;;;1.67;;
65033;SDS011;51601;51.356;12.458;2023-07-13T06:05:56;6.05;;;2.05;;
65033;SDS011;51601;51.356;12.458;2023-07-13T06:10:17;6.75;;;1.80;;
65033;SDS011;51601;51.356;12.458;2023-07-13T06:14:37;5.27;;;1.70;;
65033;SDS011;51601;51.356;12.458;2023-07-13T06:18:53;8.38;;;2.00;;
65033;SDS011;51601;51.356;12.458;2023-07-13T06:23:11;6.90;;;2.05;;
65033;SDS011;51601;51.356;12.458;2023-07-13T06:27:29;8.10;;;2.00;;
65033;SDS011;51601;51.356;12.458;2023-07-13T06:31:49;6.57;;;1.90;;
65033;SDS011;51601;51.356;12.458;2023-07-13T06:36:06;5.57;;;1.85;;
65033;SDS011;51601;51.356;12.458;2023-07-13T06:40:24;7.27;;;2.00;;
65033;SDS011;51601;51.356;12.458;2023-07-13T06:44:45;6.40;;;1.90;;
65033;SDS011;51601;51.356;12.458;2023-07-13T06:49:04;7.68;;;2.20;;
65033;SDS011;51601;51.356;12.458;2023-07-13T06:53:21;7.00;;;1.80;;
65033;SDS011;51601;51.356;12.458;2023-07-13T06:57:39;6.57;;;1.60;;
65033;SDS011;51601;51.356;12.458;2023-07-13T07:01:57;5.95;;;1.80;;
65033;SDS011;51601;51.356;12.458;2023-07-13T07:06:17;8.98;;;1.73;;
65033;SDS011;51601;51.356;12.458;2023-07-13T07:10:36;5.50;;;1.60;;
65033;SDS011;51601;51.356;12.458;2023-07-13T07:14:55;5.45;;;1.65;;
65033;SDS011;51601;51.356;12.458;2023-07-13T07:19:12;7.93;;;2.08;;
65033;SDS011;51601;51.356;12.458;2023-07-13T07:23:32;6.07;;;1.80;;
65033;SDS011;51601;51.356;12.458;2023-07-13T07:27:52;5.88;;;1.70;;
65033;SDS011;51601;51.356;12.458;2023-07-13T07:32:13;6.55;;;1.80;;
65033;SDS011;51601;51.356;12.458;2023-07-13T07:36:54;8.20;;;1.90;;
65033;SDS011;51601;51.356;12.458;2023-07-13T07:41:15;7.47;;;1.90;;
65033;SDS011;51601;51.356;12.458;2023-07-13T07:45:35;6.25;;;1.80;;
65033;SDS011;51601;51.356;12.458;2023-07-13T07:49:53;7.75;;;1.90;;
65033;SDS011;51601;51.356;12.458;2023-07-13T07:54:11;5.77;;;1.90;;
65033;SDS011;51601;51.356;12.458;2023-07-13T07:58:39;7.45;;;1.85;;
65033;SDS011;51601;51.356;12.458;2023-07-13T08:02:59;8.23;;;2.22;;
65033;SDS011;51601;51.356;12.458;2023-07-13T08:07:39;10.40;;;2.10;;
65033;SDS011;51601;51.356;12.458;2023-07-13T08:11:57;8.73;;;2.58;;
65033;SDS011;51601;51.356;12.458;2023-07-13T08:16:19;21.85;;;3.40;;
65033;SDS011;51601;51.356;12.458;2023-07-13T08:20:39;17.45;;;2.35;;
65033;SDS011;51601;51.356;12.458;2023-07-13T08:24:58;5.43;;;1.53;;
65033;SDS011;51601;51.356;12.458;2023-07-13T08:29:15;6.88;;;1.40;;
65033;SDS011;51601;51.356;12.458;2023-07-13T08:33:35;6.95;;;1.60;;
65033;SDS011;51601;51.356;12.458;2023-07-13T08:37:54;5.83;;;1.40;;
65033;SDS011;51601;51.356;12.458;2023-07-13T08:42:13;7.25;;;1.70;;
65033;SDS011;51601;51.356;12.458;2023-07-13T08:46:37;5.38;;;1.50;;
65033;SDS011;51601;51.356;12.458;2023-07-13T08:51:00;4.13;;;1.40;;
65033;SDS011;51601;51.356;12.458;2023-07-13T08:55:29;5.47;;;1.50;;
65033;SDS011;51601;51.356;12.458;2023-07-13T08:59:52;7.57;;;1.80;;
65033;SDS011;51601;51.356;12.458;2023-07-13T09:04:13;8.88;;;1.60;;
65033;SDS011;51601;51.356;12.458;2023-07-13T09:08:41;7.80;;;1.60;;
65033;SDS011;51601;51.356;12.458;2023-07-13T09:13:15;8.32;;;1.85;;
65033;SDS011;51601;51.356;12.458;2023-07-13T09:17:42;5.35;;;1.40;;
65033;SDS011;51601;51.356;12.458;2023-07-13T09:22:07;6.83;;;1.67;;
65033;SDS011;51601;51.356;12.458;2023-07-13T09:26:31;5.72;;;1.40;;
65033;SDS011;51601;51.356;12.458;2023-07-13T09:30:51;7.85;;;1.67;;
65033;SDS011;51601;51.356;12.458;2023-07-13T09:35:16;9.00;;;1.80;;
65033;SDS011;51601;51.356;12.458;2023-07-13T09:39:37;6.70;;;1.50;;
65033;SDS011;51601;51.356;12.458;2023-07-13T09:44:06;5.63;;;1.55;;
65033;SDS011;51601;51.356;12.458;2023-07-13T09:48:32;4.97;;;1.50;;
65033;SDS011;51601;51.356;12.458;2023-07-13T09:52:52;5.97;;;1.60;;
65033;SDS011;51601;51.356;12.458;2023-07-13T09:57:11;5.03;;;1.50;;
65033;SDS011;51601;51.356;12.458;2023-07-13T10:01:33;5.85;;;1.60;;
65033;SDS011;51601;51.356;12.458;2023-07-13T10:05:52;9.67;;;4.73;;
65033;SDS011;51601;51.356;12.458;2023-07-13T10:10:13;7.78;;;1.95;;
65033;SDS011;51601;51.356;12.458;2023-07-13T10:14:34;5.82;;;1.50;;
65033;SDS011;51601;51.356;12.458;2023-07-13T10:18:55;7.07;;;2.70;;
65033;SDS011;51601;51.356;12.458;2023-07-13T10:23:20;7.05;;;2.08;;
65033;SDS011;51601;51.356;12.458;2023-07-13T10:27:50;7.40;;;1.83;;
65033;SDS011;51601;51.356;12.458;2023-07-13T10:32:11;6.20;;;1.55;;
65033;SDS011;51601;51.356;12.458;2023-07-13T10:36:35;5.70;;;1.70;;
65033;SDS011;51601;51.356;12.458;2023-07-13T10:40:58;5.68;;;1.75;;
65033;SDS011;51601;51.356;12.458;2023-07-13T10:45:21;7.45;;;1.67;;
65033;SDS011;51601;51.356;12.458;2023-07-13T10:49:42;8.47;;;1.70;;
65033;SDS011;51601;51.356;12.458;2023-07-13T10:54:17;5.97;;;1.88;;
65033;SDS011;51601;51.356;12.458;2023-07-13T10:58:40;8.75;;;1.75;;
65033;SDS011;51601;51.356;12.458;2023-07-13T11:02:58;5.47;;;1.73;;
65033;SDS011;51601;51.356;12.458;2023-07-13T11:07:19;7.13;;;1.88;;
65033;SDS011;51601;51.356;12.458;2023-07-13T11:11:41;9.02;;;1.70;;
65033;SDS011;51601;51.356;12.458;2023-07-13T11:16:01;6.68;;;1.60;;
65033;SDS011;51601;51.356;12.458;2023-07-13T11:20:33;5.00;;;1.40;;
65033;SDS011;51601;51.356;12.458;2023-07-13T11:24:56;4.82;;;1.23;;
65033;SDS011;51601;51.356;12.458;2023-07-13T11:29:24;4.22;;;1.42;;
65033;SDS011;51601;51.356;12.458;2023-07-13T11:33:51;6.57;;;1.50;;
65033;SDS011;51601;51.356;12.458;2023-07-13T11:38:16;3.85;;;1.30;;
65033;SDS011;51601;51.356;12.458;2023-07-13T11:42:38;4.80;;;1.10;;
65033;SDS011;51601;51.356;12.458;2023-07-13T11:46:59;4.27;;;1.20;;
65033;SDS011;51601;51.356;12.458;2023-07-13T11:51:31;4.68;;;1.30;;
65033;SDS011;51601;51.356;12.458;2023-07-13T11:55:51;5.97;;;1.40;;
65033;SDS011;51601;51.356;12.458;2023-07-13T12:00:13;4.82;;;1.33;;
65033;SDS011;51601;51.356;12.458;2023-07-13T12:04:34;7.50;;;1.40;;
65033;SDS011;51601;51.356;12.458;2023-07-13T12:08:58;4.70;;;1.30;;
65033;SDS011;51601;51.356;12.458;2023-07-13T12:13:18;5.35;;;1.50;;
65033;SDS011;51601;51.356;12.458;2023-07-13T12:17:41;9.27;;;1.63;;
65033;SDS011;51601;51.356;12.458;2023-07-13T12:22:02;8.45;;;1.50;;
65033;SDS011;51601;51.356;12.458;2023-07-13T12:26:22;4.50;;;1.33;;
65033;SDS011;51601;51.356;12.458;2023-07-13T12:30:40;4.17;;;1.40;;
65033;SDS011;51601;51.356;12.458;2023-07-13T12:35:04;5.65;;;1.50;;
65033;SDS011;51601;51.356;12.458;2023-07-13T12:39:37;6.07;;;1.50;;
65033;SDS011;51601;51.356;12.458;2023-07-13T12:44:02;3.70;;;1.15;;
65033;SDS011;51601;51.356;12.458;2023-07-13T12:48:20;7.77;;;1.47;;
65033;SDS011;51601;51.356;12.458;2023-07-13T12:53:00;5.93;;;1.50;;
65033;SDS011;51601;51.356;12.458;2023-07-13T12:57:25;5.10;;;1.30;;
65033;SDS011;51601;51.356;12.458;2023-07-13T13:01:45;5.10;;;1.33;;
65033;SDS011;51601;51.356;12.458;2023-07-13T13:06:17;3.78;;;1.10;;
65033;SDS011;51601;51.356;12.458;2023-07-13T13:10:39;5.68;;;1.35;;
65033;SDS011;51601;51.356;12.458;2023-07-13T13:14:59;6.40;;;1.30;;
65033;SDS011;51601;51.356;12.458;2023-07-13T13:19:19;4.07;;;1.20;;
65033;SDS011;51601;51.356;12.458;2023-07-13T13:23:39;6.72;;;1.30;;
65033;SDS011;51601;51.356;12.458;2023-07-13T13:27:57;4.97;;;1.30;;
65033;SDS011;51601;51.356;12.458;2023-07-13T13:32:17;6.77;;;1.60;;
65033;SDS011;51601;51.356;12.458;2023-07-13T13:36:37;5.65;;;1.35;;
65033;SDS011;51601;51.356;12.458;2023-07-13T13:40:55;4.25;;;1.17;;
65033;SDS011;51601;51.356;12.458;2023-07-13T13:45:13;6.30;;;1.30;;
65033;SDS011;51601;51.356;12.458;2023-07-13T13:49:35;3.88;;;1.20;;
65033;SDS011;51601;51.356;12.458;2023-07-13T13:53:52;5.00;;;1.35;;
65033;SDS011;51601;51.356;12.458;2023-07-13T13:58:10;3.80;;;1.03;;
65033;SDS011;51601;51.356;12.458;2023-07-13T14:02:28;4.50;;;1.20;;
65033;SDS011;51601;51.356;12.458;2023-07-13T14:06:51;4.28;;;1.40;;
65033;SDS011;51601;51.356;12.458;2023-07-13T14:11:11;5.38;;;1.40;;
65033;SDS011;51601;51.356;12.458;2023-07-13T14:15:29;4.53;;;1.40;;
65033;SDS011;51601;51.356;12.458;2023-07-13T14:19:47;8.27;;;1.20;;
65033;SDS011;51601;51.356;12.458;2023-07-13T14:24:09;5.15;;;1.30;;
65033;SDS011;51601;51.356;12.458;2023-07-13T14:28:26;5.00;;;1.40;;
65033;SDS011;51601;51.356;12.458;2023-07-13T14:32:44;3.80;;;1.17;;
65033;SDS011;51601;51.356;12.458;2023-07-13T14:37:02;5.20;;;1.35;;
65033;SDS011;51601;51.356;12.458;2023-07-13T14:41:21;3.97;;;1.20;;
65033;SDS011;51601;51.356;12.458;2023-07-13T14:45:42;3.50;;;1.00;;
65033;SDS011;51601;51.356;12.458;2023-07-13T14:50:02;4.93;;;1.30;;
65033;SDS011;51601;51.356;12.458;2023-07-13T14:54:20;6.95;;;1.35;;
65033;SDS011;51601;51.356;12.458;2023-07-13T14:58:40;3.77;;;1.27;;
65033;SDS011;51601;51.356;12.458;2023-07-13T15:03:00;5.65;;;1.40;;
65033;SDS011;51601;51.356;12.458;2023-07-13T15:07:17;4.38;;;1.10;;
65033;SDS011;51601;51.356;12.458;2023-07-13T15:11:35;3.87;;;1.20;;
65033;SDS011;51601;51.356;12.458;2023-07-13T15:15:55;3.55;;;1.20;;
65033;SDS011;51601;51.356;12.458;2023-07-13T15:20:16;5.13;;;1.38;;
65033;SDS011;51601;51.356;12.458;2023-07-13T15:24:39;6.23;;;1.40;;
65033;SDS011;51601;51.356;12.458;2023-07-13T15:28:57;5.20;;;1.38;;
65033;SDS011;51601;51.356;12.458;2023-07-13T15:33:17;5.97;;;1.40;;
65033;SDS011;51601;51.356;12.458;2023-07-13T15:37:42;6.35;;;1.50;;
65033;SDS011;51601;51.356;12.458;2023-07-13T15:42:00;6.00;;;1.43;;
65033;SDS011;51601;51.356;12.458;2023-07-13T15:46:19;5.20;;;1.50;;
65033;SDS011;51601;51.356;12.458;2023-07-13T15:50:39;3.85;;;1.33;;
65033;SDS011;51601;51.356;12.458;2023-07-13T15:55:01;5.90;;;1.50;;
65033;SDS011;51601;51.356;12.458;2023-07-13T15:59:19;6.28;;;1.20;;
65033;SDS011;51601;51.356;12.458;2023-07-13T16:03:37;5.45;;;1.40;;
65033;SDS011;51601;51.356;12.458;2023-07-13T16:07:56;4.37;;;1.40;;
65033;SDS011;51601;51.356;12.458;2023-07-13T16:12:16;4.65;;;1.40;;
65033;SDS011;51601;51.356;12.458;2023-07-13T16:16:34;4.90;;;1.52;;
65033;SDS011;51601;51.356;12.458;2023-07-13T16:20:52;4.90;;;1.38;;
65033;SDS011;51601;51.356;12.458;2023-07-13T16:25:16;5.00;;;1.30;;
65033;SDS011;51601;51.356;12.458;2023-07-13T16:29:34;5.65;;;1.42;;
65033;SDS011;51601;51.356;12.458;2023-07-13T16:33:55;4.45;;;1.50;;
65033;SDS011;51601;51.356;12.458;2023-07-13T16:38:14;4.23;;;1.40;;
65033;SDS011;51601;51.356;12.458;2023-07-13T16:42:36;4.82;;;1.40;;
65033;SDS011;51601;51.356;12.458;2023-07-13T16:46:53;6.07;;;1.60;;
65033;SDS011;51601;51.356;12.458;2023-07-13T16:51:11;5.60;;;1.57;;
65033;SDS011;51601;51.356;12.458;2023-07-13T16:55:29;5.13;;;1.60;;
65033;SDS011;51601;51.356;12.458;2023-07-13T16:59:48;3.90;;;1.20;;
65033;SDS011;51601;51.356;12.458;2023-07-13T17:04:08;4.22;;;1.27;;
65033;SDS011;51601;51.356;12.458;2023-07-13T17:08:27;3.67;;;1.37;;
65033;SDS011;51601;51.356;12.458;2023-07-13T17:12:47;7.38;;;1.75;;
65033;SDS011;51601;51.356;12.458;2023-07-13T17:17:11;4.97;;;1.40;;
65033;SDS011;51601;51.356;12.458;2023-07-13T17:21:33;5.47;;;1.77;;
65033;SDS011;51601;51.356;12.458;2023-07-13T17:25:51;5.07;;;1.50;;
65033;SDS011;51601;51.356;12.458;2023-07-13T17:30:12;5.40;;;1.60;;
65033;SDS011;51601;51.356;12.458;2023-07-13T17:34:34;8.13;;;1.60;;
65033;SDS011;51601;51.356;12.458;2023-07-13T17:39:00;5.05;;;1.13;;
65033;SDS011;51601;51.356;12.458;2023-07-13T17:43:21;4.55;;;1.40;;
65033;SDS011;51601;51.356;12.458;2023-07-13T17:47:39;6.43;;;1.40;;
65033;SDS011;51601;51.356;12.458;2023-07-13T17:51:59;4.10;;;1.40;;
65033;SDS011;51601;51.356;12.458;2023-07-13T17:56:19;5.18;;;1.30;;
65033;SDS011;51601;51.356;12.458;2023-07-13T18:00:40;6.15;;;1.80;;
65033;SDS011;51601;51.356;12.458;2023-07-13T18:05:01;5.50;;;1.50;;
65033;SDS011;51601;51.356;12.458;2023-07-13T18:09:26;6.25;;;1.70;;
65033;SDS011;51601;51.356;12.458;2023-07-13T18:13:46;4.03;;;1.50;;
65033;SDS011;51601;51.356;12.458;2023-07-13T18:18:04;5.70;;;2.10;;
65033;SDS011;51601;51.356;12.458;2023-07-13T18:22:25;7.35;;;3.15;;
65033;SDS011;51601;51.356;12.458;2023-07-13T18:26:45;6.50;;;3.40;;
65033;SDS011;51601;51.356;12.458;2023-07-13T18:31:01;7.43;;;3.65;;
65033;SDS011;51601;51.356;12.458;2023-07-13T18:35:21;7.57;;;3.60;;
65033;SDS011;51601;51.356;12.458;2023-07-13T18:39:44;7.85;;;2.80;;
65033;SDS011;51601;51.356;12.458;2023-07-13T18:44:03;7.20;;;2.33;;
65033;SDS011;51601;51.356;12.458;2023-07-13T18:48:23;6.00;;;2.00;;
65033;SDS011;51601;51.356;12.458;2023-07-13T18:52:44;6.72;;;2.35;;
65033;SDS011;51601;51.356;12.458;2023-07-13T18:57:05;8.60;;;2.10;;
65033;SDS011;51601;51.356;12.458;2023-07-13T19:01:27;8.03;;;1.90;;
65033;SDS011;51601;51.356;12.458;2023-07-13T19:05:48;6.32;;;2.33;;
65033;SDS011;51601;51.356;12.458;2023-07-13T19:10:15;6.32;;;2.42;;
65033;SDS011;51601;51.356;12.458;2023-07-13T19:14:36;7.97;;;2.25;;
65033;SDS011;51601;51.356;12.458;2023-07-13T19:18:55;8.33;;;2.20;;
65033;SDS011;51601;51.356;12.458;2023-07-13T19:23:17;7.10;;;2.50;;
65033;SDS011;51601;51.356;12.458;2023-07-13T19:27:42;7.72;;;1.95;;
65033;SDS011;51601;51.356;12.458;2023-07-13T19:32:00;6.37;;;2.13;;
65033;SDS011;51601;51.356;12.458;2023-07-13T19:36:20;7.55;;;2.05;;
65033;SDS011;51601;51.356;12.458;2023-07-13T19:40:39;8.00;;;2.20;;
65033;SDS011;51601;51.356;12.458;2023-07-13T19:44:58;6.13;;;2.20;;
65033;SDS011;51601;51.356;12.458;2023-07-13T19:49:15;8.10;;;2.72;;
65033;SDS011;51601;51.356;12.458;2023-07-13T19:53:35;9.63;;;2.50;;
65033;SDS011;51601;51.356;12.458;2023-07-13T19:57:52;6.47;;;2.40;;
65033;SDS011;51601;51.356;12.458;2023-07-13T20:02:10;7.93;;;2.70;;
65033;SDS011;51601;51.356;12.458;2023-07-13T20:06:28;7.80;;;2.28;;
65033;SDS011;51601;51.356;12.458;2023-07-13T20:10:50;6.28;;;2.30;;
65033;SDS011;51601;51.356;12.458;2023-07-13T20:15:12;6.40;;;2.80;;
65033;SDS011;51601;51.356;12.458;2023-07-13T20:19:32;7.65;;;2.90;;
65033;SDS011;51601;51.356;12.458;2023-07-13T20:23:52;8.98;;;2.65;;
65033;SDS011;51601;51.356;12.458;2023-07-13T20:28:12;6.70;;;2.93;;
65033;SDS011;51601;51.356;12.458;2023-07-13T20:32:28;7.18;;;3.20;;
65033;SDS011;51601;51.356;12.458;2023-07-13T20:36:49;6.20;;;2.42;;
65033;SDS011;51601;51.356;12.458;2023-07-13T20:41:11;7.70;;;2.40;;
65033;SDS011;51601;51.356;12.458;2023-07-13T20:45:31;5.87;;;2.40;;
65033;SDS011;51601;51.356;12.458;2023-07-13T20:49:50;7.22;;;3.17;;
65033;SDS011;51601;51.356;12.458;2023-07-13T20:54:10;5.75;;;2.50;;
65033;SDS011;51601;51.356;12.458;2023-07-13T20:58:32;5.77;;;2.63;;
65033;SDS011;51601;51.356;12.458;2023-07-13T21:02:53;6.85;;;2.53;;
65033;SDS011;51601;51.356;12.458;2023-07-13T21:07:14;6.45;;;2.50;;
65033;SDS011;51601;51.356;12.458;2023-07-13T21:11:35;8.93;;;2.57;;
65033;SDS011;51601;51.356;12.458;2023-07-13T21:15:53;5.90;;;2.50;;
65033;SDS011;51601;51.356;12.458;2023-07-13T21:20:17;7.97;;;2.60;;
65033;SDS011;51601;51.356;12.458;2023-07-13T21:24:39;6.72;;;2.80;;
65033;SDS011;51601;51.356;12.458;2023-07-13T21:28:57;8.13;;;2.70;;
65033;SDS011;51601;51.356;12.458;2023-07-13T21:33:15;6.43;;;2.55;;
65033;SDS011;51601;51.356;12.458;2023-07-13T21:37:37;7.88;;;2.90;;
65033;SDS011;51601;51.356;12.458;2023-07-13T21:41:54;7.33;;;2.60;;
65033;SDS011;51601;51.356;12.458;2023-07-13T21:46:12;6.43;;;2.85;;
65033;SDS011;51601;51.356;12.458;2023-07-13T21:50:34;7.95;;;2.63;;
65033;SDS011;51601;51.356;12.458;2023-07-13T21:54:56;6.50;;;2.53;;
65033;SDS011;51601;51.356;12.458;2023-07-13T21:59:16;8.10;;;3.05;;
65033;SDS011;51601;51.356;12.458;2023-07-13T22:03:37;8.05;;;2.70;;
65033;SDS011;51601;51.356;12.458;2023-07-13T22:07:55;5.97;;;2.67;;
65033;SDS011;51601;51.356;12.458;2023-07-13T22:12:17;7.20;;;2.60;;
65033;SDS011;51601;51.356;12.458;2023-07-13T22:16:34;6.97;;;2.83;;
65033;SDS011;51601;51.356;12.458;2023-07-13T22:20:52;7.13;;;2.63;;
65033;SDS011;51601;51.356;12.458;2023-07-13T22:25:10;6.83;;;2.97;;
65033;SDS011;51601;51.356;12.458;2023-07-13T22:29:31;7.80;;;3.15;;
65033;SDS011;51601;51.356;12.458;2023-07-13T22:33:49;6.93;;;2.95;;
65033;SDS011;51601;51.356;12.458;2023-07-13T22:38:08;8.47;;;2.90;;
65033;SDS011;51601;51.356;12.458;2023-07-13T22:42:31;7.95;;;3.20;;
65033;SDS011;51601;51.356;12.458;2023-07-13T22:46:54;7.13;;;3.17;;
65033;SDS011;51601;51.356;12.458;2023-07-13T22:51:15;6.32;;;2.55;;
65033;SDS011;51601;51.356;12.458;2023-07-13T22:55:35;7.07;;;2.77;;
65033;SDS011;51601;51.356;12.458;2023-07-13T22:59:56;7.07;;;2.70;;
65033;SDS011;51601;51.356;12.458;2023-07-13T23:04:17;7.28;;;3.00;;
65033;SDS011;51601;51.356;12.458;2023-07-13T23:08:38;9.17;;;2.93;;
65033;SDS011;51601;51.356;12.458;2023-07-13T23:12:56;6.70;;;2.58;;
65033;SDS011;51601;51.356;12.458;2023-07-13T23:17:17;6.80;;;2.75;;
65033;SDS011;51601;51.356;12.458;2023-07-13T23:21:37;5.70;;;2.67;;
65033;SDS011;51601;51.356;12.458;2023-07-13T23:25:56;6.97;;;3.00;;
65033;SDS011;51601;51.356;12.458;2023-07-13T23:30:15;8.15;;;3.13;;
65033;SDS011;51601;51.356;12.458;2023-07-13T23:34:36;8.15;;;3.10;;
65033;SDS011;51601;51.356;12.458;2023-07-13T23:38:55;10.90;;;3.10;;
65033;SDS011;51601;51.356;12.458;2023-07-13T23:43:15;6.40;;;3.00;;
65033;SDS011;51601;51.356;12.458;2023-07-13T23:47:33;7.38;;;3.30;;
65033;SDS011;51601;51.356;12.458;2023-07-13T23:51:52;6.50;;;3.30;;
65033;SDS011;51601;51.356;12.458;2023-07-13T23:56:16;6.35;;;3.08;;
